La Pepa Cadiz — EA4275 — position and weather

sailwx.info

Track history (hours):
 
Tides and Currents Weather Stations Pressure Air Temp Water Temp Dewpoint Dewpoint Depression Visibility Wind Speed Wind Dir Waves Ship Positions

La Pepa Cadiz

Last reported at 2018-Jun-19 21:44 UTC. Time now 2018-Jun-19 22:02 UTC.
Position N 38°54' E 001°26'.

Length 21 m; draft 1.5 m.

Type: Passenger vessel. MMSI: 224000010.

Date/timePositionNaut miles runAvg speedWind from/ knotsBaromVisibWave heightAir tempDewpointWater temp
2018-Jun-19 21:44N 38°54' E 001°26'0 0.0
2018-Jun-19 21:14N 38°54' E 001°26'0 0.0
2018-Jun-19 21:00N 38°54' E 001°26'0 0.0
2018-Jun-19 19:49N 38°54' E 001°26'0 0.0
2018-Jun-19 18:31N 38°54' E 001°26'0 0.0
2018-Jun-19 18:28N 38°54' E 001°26'0 0.0
2018-Jun-19 17:56N 38°54' E 001°26'0 0.0
2018-Jun-19 17:29N 38°54' E 001°26'0 0.0
2018-Jun-19 16:58N 38°54' E 001°26'0 0.0
2018-Jun-19 16:30N 38°54' E 001°26'0 0.0
2018-Jun-19 15:52N 38°54' E 001°26'0 0.7
2018-Jun-19 15:30N 38°54' E 001°26'0 0.7
2018-Jun-19 14:57N 38°54' E 001°25'2 4.5
2018-Jun-19 14:30N 38°54' E 001°28'1 2.9
2018-Jun-19 13:59N 38°55' E 001°29'0 0.6
2018-Jun-19 13:30N 38°55' E 001°29'0 0.0
2018-Jun-19 12:58N 38°55' E 001°29'0 0.0
2018-Jun-19 12:30N 38°55' E 001°29'1 2.0
2018-Jun-19 12:00N 38°54' E 001°28'2 4.1
2018-Jun-19 11:29N 38°54' E 001°25'0 0.1
2018-Jun-19 10:59N 38°54' E 001°25'1 1.0
2018-Jun-19 10:27N 38°54' E 001°26'0 0.0
2018-Jun-19 09:58N 38°54' E 001°26'0 0.0
2018-Jun-19 09:30N 38°54' E 001°26'0 0.0
2018-Jun-19 08:56N 38°54' E 001°26'0 0.0
2018-Jun-19 08:27N 38°54' E 001°26'0 0.0
2018-Jun-19 07:58N 38°54' E 001°26'0 0.0
2018-Jun-19 07:30N 38°54' E 001°26'0 0.0
2018-Jun-19 07:00N 38°54' E 001°26'0 0.0
2018-Jun-19 06:26N 38°54' E 001°26'0 0.0
2018-Jun-19 05:58N 38°54' E 001°26'0 0.0
2018-Jun-19 05:30N 38°54' E 001°26'0 0.0
2018-Jun-19 04:58N 38°54' E 001°26'0 0.0
2018-Jun-19 04:28N 38°54' E 001°26'0 0.0
2018-Jun-19 04:00N 38°54' E 001°26'0 0.0
2018-Jun-19 03:28N 38°54' E 001°26'0 0.0
2018-Jun-19 02:56N 38°54' E 001°26'0 0.0
2018-Jun-19 02:29N 38°54' E 001°26'0 0.0
2018-Jun-19 01:58N 38°54' E 001°26'0 0.0
2018-Jun-19 01:29N 38°54' E 001°26'0 0.0
2018-Jun-19 00:59N 38°54' E 001°26'0 0.0
2018-Jun-19 00:28N 38°54' E 001°26'0 0.0
2018-Jun-18 23:59N 38°54' E 001°26'0 0.0
2018-Jun-18 23:28N 38°54' E 001°26'0 0.0
2018-Jun-18 23:00N 38°54' E 001°26'0 0.0
2018-Jun-18 22:26N 38°54' E 001°26'0 0.0
2018-Jun-18 21:56N 38°54' E 001°26'0 0.0
2018-Jun-18 21:28N 38°54' E 001°26'0 0.0
2018-Jun-18 21:00N 38°54' E 001°26'0 0.0
2018-Jun-18 20:28N 38°54' E 001°26'0 0.0
2018-Jun-18 19:57N 38°54' E 001°26'0 0.0
2018-Jun-18 19:28N 38°54' E 001°26'0 0.0
2018-Jun-18 19:00N 38°54' E 001°26'0 0.0
2018-Jun-18 18:27N 38°54' E 001°26'0 0.0
2018-Jun-18 17:17N 38°54' E 001°26'0 0.0
2018-Jun-18 16:16N 38°54' E 001°26'0 0.0
2018-Jun-18 15:58N 38°54' E 001°26'1 0.8
2018-Jun-18 14:55N 38°53' E 001°25'3 5.3
2018-Jun-18 14:25N 38°53' E 001°29'2 1.8
2018-Jun-18 13:22N 38°55' E 001°29'0 0.0
2018-Jun-18 12:35N 38°55' E 001°29'0 0.0
2018-Jun-18 12:18N 38°55' E 001°29'3 4.9
2018-Jun-18 11:44N 38°54' E 001°25'0 1.0
2018-Jun-18 11:22N 38°54' E 001°25'1 1.0
2018-Jun-18 10:48N 38°54' E 001°26'0 0.4
2018-Jun-18 10:23N 38°54' E 001°26'0 0.0
2018-Jun-18 09:43N 38°54' E 001°26'0 0.0
2018-Jun-18 09:17N 38°54' E 001°26'0 0.0
2018-Jun-18 08:45N 38°54' E 001°26'1 2.2
2018-Jun-18 08:28N 38°54' E 001°26'0 0.9
2018-Jun-18 07:54N 38°55' E 001°27'1 2.5
2018-Jun-18 07:30N 38°54' E 001°26'0 0.0
2018-Jun-18 06:52N 38°54' E 001°26'0 0.0
2018-Jun-18 06:14N 38°54' E 001°26'0 0.0
2018-Jun-18 05:59N 38°54' E 001°26'0 0.0
2018-Jun-18 04:36N 38°54' E 001°26'0 0.0
2018-Jun-18 04:26N 38°54' E 001°26'0 0.0
2018-Jun-18 03:57N 38°54' E 001°26'0 0.0
2018-Jun-18 01:35N 38°54' E 001°26'0 0.0
2018-Jun-18 01:15N 38°54' E 001°26'0 0.0
2018-Jun-18 01:00N 38°54' E 001°26'0 0.0
2018-Jun-18 00:30N 38°54' E 001°26'0 0.0
2018-Jun-17 23:43N 38°54' E 001°26'0 0.0
2018-Jun-17 23:28N 38°54' E 001°26'0 0.0
2018-Jun-17 22:34N 38°54' E 001°26'0 0.0
2018-Jun-17 22:30N 38°54' E 001°26'0 0.0
2018-Jun-17 20:11N 38°54' E 001°26'0 0.0
2018-Jun-17 19:55N 38°54' E 001°26'0 0.0
2018-Jun-17 19:29N 38°54' E 001°26'0 0.0
2018-Jun-17 18:58N 38°54' E 001°26'0 0.0
2018-Jun-17 18:28N 38°54' E 001°26'0 0.0
2018-Jun-17 17:58N 38°54' E 001°26'0 0.0
2018-Jun-17 17:27N 38°54' E 001°26'0 0.0
2018-Jun-16 19:40N 38°54' E 001°26'0 0.0
2018-Jun-16 19:12N 38°54' E 001°26'0 0.0
2018-Jun-16 18:57N 38°54' E 001°26'0 0.0
2018-Jun-16 18:28N 38°54' E 001°26'0 0.0
2018-Jun-16 17:56N 38°54' E 001°26'0 0.0
2018-Jun-16 15:35N 38°54' E 001°26'2 0.5
2018-Jun-16 11:48N 38°54' E 001°28'2 7.8
2018-Jun-16 11:30N 38°54' E 001°25'0 0.3
2018-Jun-16 10:59N 38°54' E 001°25'0 0.0
2018-Jun-15 17:49N 38°54' E 001°26'0 0.0
2018-Jun-14 21:47N 38°54' E 001°26'0 0.0
2018-Jun-14 21:30N 38°54' E 001°26'0 0.0
2018-Jun-14 20:57N 38°54' E 001°26'0 0.0
2018-Jun-14 20:29N 38°54' E 001°26'0 0.0
2018-Jun-14 19:57N 38°54' E 001°26'0 0.0
2018-Jun-14 19:30N 38°54' E 001°26'0 0.0
2018-Jun-14 18:59N 38°54' E 001°26'0 0.0
2018-Jun-14 18:29N 38°54' E 001°26'0 0.0
2018-Jun-14 17:57N 38°54' E 001°26'0 0.0
2018-Jun-14 17:21N 38°54' E 001°26'0 0.0
2018-Jun-14 16:56N 38°54' E 001°26'0 0.0
2018-Jun-14 16:30N 38°54' E 001°26'0 0.0
2018-Jun-14 15:58N 38°54' E 001°26'0 0.0
2018-Jun-14 15:28N 38°54' E 001°26'0 0.0
2018-Jun-14 14:59N 38°54' E 001°26'0 0.0
2018-Jun-14 14:27N 38°54' E 001°26'0 0.9
2018-Jun-14 14:00N 38°54' E 001°25'0 0.1
2018-Jun-14 13:28N 38°54' E 001°25'0 0.0
2018-Jun-14 12:59N 38°54' E 001°25'0 0.0
2018-Jun-14 12:29N 38°54' E 001°25'0 0.0
2018-Jun-14 11:59N 38°54' E 001°25'0 0.0
2018-Jun-14 11:28N 38°54' E 001°25'0 0.0
2018-Jun-14 10:58N 38°54' E 001°25'0 0.0
2018-Jun-14 10:25N 38°54' E 001°25'0 0.0
2018-Jun-14 09:58N 38°54' E 001°25'0 0.0
2018-Jun-14 09:30N 38°54' E 001°25'0 0.0
2018-Jun-14 08:59N 38°54' E 001°25'0 0.0
2018-Jun-14 08:28N 38°54' E 001°25'0 0.0
2018-Jun-14 07:59N 38°54' E 001°25'0 0.0
2018-Jun-14 07:29N 38°54' E 001°25'0 0.0
2018-Jun-14 06:59N 38°54' E 001°25'0 0.0
2018-Jun-14 06:28N 38°54' E 001°25'0 0.0
2018-Jun-14 05:52N 38°54' E 001°25'0 0.0
2018-Jun-14 05:30N 38°54' E 001°25'0 0.0
2018-Jun-14 04:43N 38°54' E 001°25'0 0.0
2018-Jun-14 04:27N 38°54' E 001°25'0 0.0
2018-Jun-14 03:57N 38°54' E 001°25'0 0.0
2018-Jun-14 03:28N 38°54' E 001°25'0 0.0
2018-Jun-14 01:44N 38°54' E 001°25'0 0.0
2018-Jun-14 01:15N 38°54' E 001°25'0 0.0
2018-Jun-14 00:54N 38°54' E 001°25'0 0.0
2018-Jun-13 22:20N 38°54' E 001°25'0 0.0
2018-Jun-13 19:25N 38°54' E 001°25'0 0.0
2018-Jun-13 18:57N 38°54' E 001°25'0 0.0
2018-Jun-13 18:25N 38°54' E 001°25'0 0.0
2018-Jun-13 17:57N 38°54' E 001°25'0 0.0
2018-Jun-13 17:01N 38°54' E 001°25'0 0.0
2018-Jun-13 16:49N 38°54' E 001°25'0 0.0
2018-Jun-13 16:18N 38°54' E 001°25'0 0.0
2018-Jun-13 15:58N 38°54' E 001°25'0 0.0
2018-Jun-13 15:28N 38°54' E 001°25'0 0.7
2018-Jun-13 15:00N 38°54' E 001°25'1 1.0
2018-Jun-13 14:24N 38°53' E 001°25'0 0.0
2018-Jun-13 13:47N 38°53' E 001°25'0 0.0
2018-Jun-13 13:28N 38°53' E 001°25'0 0.0
2018-Jun-13 11:36N 38°53' E 001°25'0 0.1
2018-Jun-13 11:29N 38°53' E 001°25'1 0.3
2018-Jun-13 10:00N 38°54' E 001°25'0 0.1
2018-Jun-13 09:28N 38°53' E 001°25'0 0.0
2018-Jun-13 09:00N 38°53' E 001°25'0 0.0
2018-Jun-13 08:24N 38°53' E 001°25'0 0.0
2018-Jun-13 08:00N 38°53' E 001°25'0 0.0
2018-Jun-13 07:30N 38°53' E 001°25'0 0.0
2018-Jun-13 06:51N 38°53' E 001°25'0 0.0
2018-Jun-13 05:43N 38°53' E 001°25'0 0.0
2018-Jun-13 05:21N 38°53' E 001°25'0 0.1
2018-Jun-13 04:09N 38°54' E 001°25'0 0.5
2018-Jun-13 03:09N 38°53' E 001°26'0 0.9
2018-Jun-13 02:49N 38°53' E 001°26'0 0.2
2018-Jun-13 01:34N 38°54' E 001°26'0 0.0
2018-Jun-13 01:24N 38°54' E 001°26'0 0.0
2018-Jun-13 00:52N 38°54' E 001°26'0 0.0
2018-Jun-13 00:29N 38°54' E 001°26'0 0.0
2018-Jun-12 22:37N 38°54' E 001°26'0 0.0
2018-Jun-12 22:27N 38°54' E 001°26'0 0.0
2018-Jun-12 21:56N 38°54' E 001°26'0 0.0
2018-Jun-12 21:28N 38°54' E 001°26'0 0.0
2018-Jun-12 10:02N 38°54' E 001°25'0 4.4
2018-Jun-12 10:00N 38°54' E 001°26'0 0.1
2018-Jun-12 09:26N 38°53' E 001°26'0 0.0
2018-Jun-12 08:19N 38°54' E 001°26'0 0.0
2018-Jun-12 07:56N 38°54' E 001°26'0 0.0
2018-Jun-12 07:29N 38°54' E 001°26'0 0.0
2018-Jun-12 06:32N 38°54' E 001°26'0 0.0
2018-Jun-12 06:22N 38°54' E 001°26'0 0.0
2018-Jun-12 05:59N 38°54' E 001°26'0 0.0
2018-Jun-12 05:30N 38°54' E 001°26'0 0.0
2018-Jun-12 04:59N 38°54' E 001°26'0 0.0
2018-Jun-12 04:26N 38°54' E 001°26'0 0.0
2018-Jun-12 04:00N 38°54' E 001°26'0 0.0
2018-Jun-12 03:29N 38°54' E 001°26'0 0.0
2018-Jun-12 02:57N 38°54' E 001°26'0 0.0
2018-Jun-12 02:28N 38°54' E 001°26'0 0.0
2018-Jun-12 01:58N 38°54' E 001°26'0 0.0
2018-Jun-12 01:30N 38°54' E 001°26'0 0.0
2018-Jun-12 00:57N 38°54' E 001°26'0 0.0
2018-Jun-12 00:29N 38°54' E 001°26'0 0.0
2018-Jun-11 23:58N 38°54' E 001°26'0 0.0
2018-Jun-11 23:30N 38°54' E 001°26'0 0.0
2018-Jun-11 22:59N 38°54' E 001°26'0 0.0
2018-Jun-11 22:28N 38°54' E 001°26'0 0.0
2018-Jun-11 21:57N 38°54' E 001°26'0 0.0
2018-Jun-11 20:43N 38°54' E 001°26'0 0.0
2018-Jun-11 20:30N 38°54' E 001°26'0 0.0
2018-Jun-11 19:57N 38°54' E 001°26'0 0.0
2018-Jun-11 19:28N 38°54' E 001°26'0 0.0
2018-Jun-11 18:58N 38°54' E 001°26'0 0.0
2018-Jun-11 18:24N 38°54' E 001°26'0 0.0
2018-Jun-11 18:00N 38°54' E 001°26'0 0.0
2018-Jun-11 17:27N 38°54' E 001°26'0 0.0
2018-Jun-11 16:59N 38°54' E 001°26'0 0.0
2018-Jun-11 16:27N 38°54' E 001°26'0 0.0
2018-Jun-11 15:56N 38°54' E 001°26'0 0.0
2018-Jun-11 15:29N 38°54' E 001°26'0 0.0
2018-Jun-11 14:59N 38°53' E 001°26'0 0.0
2018-Jun-11 13:59N 38°53' E 001°26'0 0.0
2018-Jun-11 13:30N 38°53' E 001°26'0 0.1
2018-Jun-11 12:00N 38°54' E 001°26'1 0.3
2018-Jun-11 09:58N 38°54' E 001°25'0 1.0
2018-Jun-11 09:29N 38°54' E 001°25'0 0.0
2018-Jun-11 08:58N 38°54' E 001°25'0 0.0
2018-Jun-11 08:29N 38°54' E 001°25'0 0.0
2018-Jun-11 08:00N 38°54' E 001°25'0 0.5
2018-Jun-11 07:24N 38°54' E 001°25'0 0.0
2018-Jun-11 06:59N 38°54' E 001°25'0 0.0
2018-Jun-11 06:30N 38°54' E 001°25'0 0.0
2018-Jun-11 05:57N 38°54' E 001°25'0 0.0
2018-Jun-11 05:30N 38°54' E 001°25'0 0.0
2018-Jun-11 04:59N 38°54' E 001°25'0 0.0
2018-Jun-11 04:26N 38°54' E 001°25'0 0.0
2018-Jun-11 03:51N 38°54' E 001°25'0 0.0
2018-Jun-11 03:30N 38°54' E 001°25'0 0.0
2018-Jun-11 03:00N 38°54' E 001°25'0 0.1
2018-Jun-11 02:28N 38°54' E 001°25'0 0.0
2018-Jun-11 01:56N 38°54' E 001°25'0 0.0
2018-Jun-11 01:25N 38°54' E 001°25'0 0.0
2018-Jun-11 00:59N 38°54' E 001°25'0 0.0
2018-Jun-11 00:23N 38°54' E 001°25'0 0.0
2018-Jun-11 00:00N 38°54' E 001°25'0 0.0
2018-Jun-10 23:28N 38°54' E 001°25'0 0.0
2018-Jun-10 23:00N 38°54' E 001°25'0 0.0
2018-Jun-10 22:30N 38°54' E 001°25'0 0.0
2018-Jun-10 21:56N 38°54' E 001°25'0 0.0
2018-Jun-10 21:27N 38°54' E 001°25'0 0.0
2018-Jun-10 20:57N 38°54' E 001°25'0 0.0
2018-Jun-10 20:29N 38°54' E 001°25'0 0.0
2018-Jun-10 19:59N 38°54' E 001°25'0 0.0
2018-Jun-10 19:25N 38°54' E 001°25'0 0.0
2018-Jun-10 18:58N 38°54' E 001°25'0 0.0
2018-Jun-10 18:29N 38°54' E 001°25'0 0.0
2018-Jun-10 17:51N 38°54' E 001°25'0 0.6
2018-Jun-10 17:29N 38°54' E 001°25'0 0.5
2018-Jun-10 16:58N 38°54' E 001°25'1 1.1
2018-Jun-10 16:30N 38°54' E 001°26'1 1.0
2018-Jun-10 15:56N 38°54' E 001°25'0 0.9
2018-Jun-10 15:30N 38°54' E 001°25'5 3.1
2018-Jun-10 13:55N 38°56' E 001°31'4 7.4
2018-Jun-10 13:23N 38°54' E 001°27'1 0.9
2018-Jun-10 11:47N 38°54' E 001°25'0 0.1
2018-Jun-10 08:35N 38°54' E 001°25'0 0.1
2018-Jun-10 08:30N 38°54' E 001°25'0 0.0
2018-Jun-10 07:25N 38°54' E 001°25'0 0.7
2018-Jun-10 06:55N 38°54' E 001°25'0 0.0
2018-Jun-10 06:00N 38°54' E 001°25'0 0.0
2018-Jun-10 05:26N 38°54' E 001°25'0 0.0
2018-Jun-10 04:57N 38°54' E 001°25'0 0.0
2018-Jun-10 04:28N 38°54' E 001°25'0 0.0
2018-Jun-10 04:00N 38°54' E 001°25'0 0.0
2018-Jun-10 03:26N 38°54' E 001°25'0 0.0
2018-Jun-10 03:00N 38°54' E 001°25'0 0.0
2018-Jun-10 02:29N 38°54' E 001°25'0 0.0
2018-Jun-10 01:56N 38°54' E 001°25'0 0.0
2018-Jun-10 01:30N 38°54' E 001°25'0 0.0
2018-Jun-10 00:59N 38°54' E 001°25'0 0.0
2018-Jun-10 00:29N 38°54' E 001°25'0 0.0
2018-Jun-10 00:00N 38°54' E 001°25'0 0.0
2018-Jun-09 23:29N 38°54' E 001°25'0 0.0
2018-Jun-09 22:59N 38°54' E 001°25'0 0.0
2018-Jun-09 22:29N 38°54' E 001°25'0 0.0
2018-Jun-09 21:59N 38°54' E 001°25'  
Track history (hours):
 
Tides and Currents Weather Stations Pressure Air Temp Water Temp Dewpoint Dewpoint Depression Visibility Wind Speed Wind Dir Waves Ship Positions

La Pepa Cadiz

Last reported at 2018-Jun-19 21:44 UTC. Time now 2018-Jun-19 22:02 UTC.
Position N 38°54' E 001°26'.

Length 21 m; draft 1.5 m.

Type: Passenger vessel. MMSI: 224000010.

Date/timePositionNaut miles runAvg speedWind from/ knotsBaromVisibWave heightAir tempDewpointWater temp
2018-Jun-19 21:44N 38°54' E 001°26'0 0.0
2018-Jun-19 21:14N 38°54' E 001°26'0 0.0
2018-Jun-19 21:00N 38°54' E 001°26'0 0.0
2018-Jun-19 19:49N 38°54' E 001°26'0 0.0
2018-Jun-19 18:31N 38°54' E 001°26'0 0.0
2018-Jun-19 18:28N 38°54' E 001°26'0 0.0
2018-Jun-19 17:56N 38°54' E 001°26'0 0.0
2018-Jun-19 17:29N 38°54' E 001°26'0 0.0
2018-Jun-19 16:58N 38°54' E 001°26'0 0.0
2018-Jun-19 16:30N 38°54' E 001°26'0 0.0
2018-Jun-19 15:52N 38°54' E 001°26'0 0.7
2018-Jun-19 15:30N 38°54' E 001°26'0 0.7
2018-Jun-19 14:57N 38°54' E 001°25'2 4.5
2018-Jun-19 14:30N 38°54' E 001°28'1 2.9
2018-Jun-19 13:59N 38°55' E 001°29'0 0.6
2018-Jun-19 13:30N 38°55' E 001°29'0 0.0
2018-Jun-19 12:58N 38°55' E 001°29'0 0.0
2018-Jun-19 12:30N 38°55' E 001°29'1 2.0
2018-Jun-19 12:00N 38°54' E 001°28'2 4.1
2018-Jun-19 11:29N 38°54' E 001°25'0 0.1
2018-Jun-19 10:59N 38°54' E 001°25'1 1.0
2018-Jun-19 10:27N 38°54' E 001°26'0 0.0
2018-Jun-19 09:58N 38°54' E 001°26'0 0.0
2018-Jun-19 09:30N 38°54' E 001°26'0 0.0
2018-Jun-19 08:56N 38°54' E 001°26'0 0.0
2018-Jun-19 08:27N 38°54' E 001°26'0 0.0
2018-Jun-19 07:58N 38°54' E 001°26'0 0.0
2018-Jun-19 07:30N 38°54' E 001°26'0 0.0
2018-Jun-19 07:00N 38°54' E 001°26'0 0.0
2018-Jun-19 06:26N 38°54' E 001°26'0 0.0
2018-Jun-19 05:58N 38°54' E 001°26'0 0.0
2018-Jun-19 05:30N 38°54' E 001°26'0 0.0
2018-Jun-19 04:58N 38°54' E 001°26'0 0.0
2018-Jun-19 04:28N 38°54' E 001°26'0 0.0
2018-Jun-19 04:00N 38°54' E 001°26'0 0.0
2018-Jun-19 03:28N 38°54' E 001°26'0 0.0
2018-Jun-19 02:56N 38°54' E 001°26'0 0.0
2018-Jun-19 02:29N 38°54' E 001°26'0 0.0
2018-Jun-19 01:58N 38°54' E 001°26'0 0.0
2018-Jun-19 01:29N 38°54' E 001°26'0 0.0
2018-Jun-19 00:59N 38°54' E 001°26'0 0.0
2018-Jun-19 00:28N 38°54' E 001°26'0 0.0
2018-Jun-18 23:59N 38°54' E 001°26'0 0.0
2018-Jun-18 23:28N 38°54' E 001°26'0 0.0
2018-Jun-18 23:00N 38°54' E 001°26'0 0.0
2018-Jun-18 22:26N 38°54' E 001°26'0 0.0
2018-Jun-18 21:56N 38°54' E 001°26'0 0.0
2018-Jun-18 21:28N 38°54' E 001°26'0 0.0
2018-Jun-18 21:00N 38°54' E 001°26'0 0.0
2018-Jun-18 20:28N 38°54' E 001°26'0 0.0
2018-Jun-18 19:57N 38°54' E 001°26'0 0.0
2018-Jun-18 19:28N 38°54' E 001°26'0 0.0
2018-Jun-18 19:00N 38°54' E 001°26'0 0.0
2018-Jun-18 18:27N 38°54' E 001°26'0 0.0
2018-Jun-18 17:17N 38°54' E 001°26'0 0.0
2018-Jun-18 16:16N 38°54' E 001°26'0 0.0
2018-Jun-18 15:58N 38°54' E 001°26'1 0.8
2018-Jun-18 14:55N 38°53' E 001°25'3 5.3
2018-Jun-18 14:25N 38°53' E 001°29'2 1.8
2018-Jun-18 13:22N 38°55' E 001°29'0 0.0
2018-Jun-18 12:35N 38°55' E 001°29'0 0.0
2018-Jun-18 12:18N 38°55' E 001°29'3 4.9
2018-Jun-18 11:44N 38°54' E 001°25'0 1.0
2018-Jun-18 11:22N 38°54' E 001°25'1 1.0
2018-Jun-18 10:48N 38°54' E 001°26'0 0.4
2018-Jun-18 10:23N 38°54' E 001°26'0 0.0
2018-Jun-18 09:43N 38°54' E 001°26'0 0.0
2018-Jun-18 09:17N 38°54' E 001°26'0 0.0
2018-Jun-18 08:45N 38°54' E 001°26'1 2.2
2018-Jun-18 08:28N 38°54' E 001°26'0 0.9
2018-Jun-18 07:54N 38°55' E 001°27'1 2.5
2018-Jun-18 07:30N 38°54' E 001°26'0 0.0
2018-Jun-18 06:52N 38°54' E 001°26'0 0.0
2018-Jun-18 06:14N 38°54' E 001°26'0 0.0
2018-Jun-18 05:59N 38°54' E 001°26'0 0.0
2018-Jun-18 04:36N 38°54' E 001°26'0 0.0
2018-Jun-18 04:26N 38°54' E 001°26'0 0.0
2018-Jun-18 03:57N 38°54' E 001°26'0 0.0
2018-Jun-18 01:35N 38°54' E 001°26'0 0.0
2018-Jun-18 01:15N 38°54' E 001°26'0 0.0
2018-Jun-18 01:00N 38°54' E 001°26'0 0.0
2018-Jun-18 00:30N 38°54' E 001°26'0 0.0
2018-Jun-17 23:43N 38°54' E 001°26'0 0.0
2018-Jun-17 23:28N 38°54' E 001°26'0 0.0
2018-Jun-17 22:34N 38°54' E 001°26'0 0.0
2018-Jun-17 22:30N 38°54' E 001°26'0 0.0
2018-Jun-17 20:11N 38°54' E 001°26'0 0.0
2018-Jun-17 19:55N 38°54' E 001°26'0 0.0
2018-Jun-17 19:29N 38°54' E 001°26'0 0.0
2018-Jun-17 18:58N 38°54' E 001°26'0 0.0
2018-Jun-17 18:28N 38°54' E 001°26'0 0.0
2018-Jun-17 17:58N 38°54' E 001°26'0 0.0
2018-Jun-17 17:27N 38°54' E 001°26'0 0.0
2018-Jun-16 19:40N 38°54' E 001°26'0 0.0
2018-Jun-16 19:12N 38°54' E 001°26'0 0.0
2018-Jun-16 18:57N 38°54' E 001°26'0 0.0
2018-Jun-16 18:28N 38°54' E 001°26'0 0.0
2018-Jun-16 17:56N 38°54' E 001°26'0 0.0
2018-Jun-16 15:35N 38°54' E 001°26'2 0.5
2018-Jun-16 11:48N 38°54' E 001°28'2 7.8
2018-Jun-16 11:30N 38°54' E 001°25'0 0.3
2018-Jun-16 10:59N 38°54' E 001°25'0 0.0
2018-Jun-15 17:49N 38°54' E 001°26'0 0.0
2018-Jun-14 21:47N 38°54' E 001°26'0 0.0
2018-Jun-14 21:30N 38°54' E 001°26'0 0.0
2018-Jun-14 20:57N 38°54' E 001°26'0 0.0
2018-Jun-14 20:29N 38°54' E 001°26'0 0.0
2018-Jun-14 19:57N 38°54' E 001°26'0 0.0
2018-Jun-14 19:30N 38°54' E 001°26'0 0.0
2018-Jun-14 18:59N 38°54' E 001°26'0 0.0
2018-Jun-14 18:29N 38°54' E 001°26'0 0.0
2018-Jun-14 17:57N 38°54' E 001°26'0 0.0
2018-Jun-14 17:21N 38°54' E 001°26'0 0.0
2018-Jun-14 16:56N 38°54' E 001°26'0 0.0
2018-Jun-14 16:30N 38°54' E 001°26'0 0.0
2018-Jun-14 15:58N 38°54' E 001°26'0 0.0
2018-Jun-14 15:28N 38°54' E 001°26'0 0.0
2018-Jun-14 14:59N 38°54' E 001°26'0 0.0
2018-Jun-14 14:27N 38°54' E 001°26'0 0.9
2018-Jun-14 14:00N 38°54' E 001°25'0 0.1
2018-Jun-14 13:28N 38°54' E 001°25'0 0.0
2018-Jun-14 12:59N 38°54' E 001°25'0 0.0
2018-Jun-14 12:29N 38°54' E 001°25'0 0.0
2018-Jun-14 11:59N 38°54' E 001°25'0 0.0
2018-Jun-14 11:28N 38°54' E 001°25'0 0.0
2018-Jun-14 10:58N 38°54' E 001°25'0 0.0
2018-Jun-14 10:25N 38°54' E 001°25'0 0.0
2018-Jun-14 09:58N 38°54' E 001°25'0 0.0
2018-Jun-14 09:30N 38°54' E 001°25'0 0.0
2018-Jun-14 08:59N 38°54' E 001°25'0 0.0
2018-Jun-14 08:28N 38°54' E 001°25'0 0.0
2018-Jun-14 07:59N 38°54' E 001°25'0 0.0
2018-Jun-14 07:29N 38°54' E 001°25'0 0.0
2018-Jun-14 06:59N 38°54' E 001°25'0 0.0
2018-Jun-14 06:28N 38°54' E 001°25'0 0.0
2018-Jun-14 05:52N 38°54' E 001°25'0 0.0
2018-Jun-14 05:30N 38°54' E 001°25'0 0.0
2018-Jun-14 04:43N 38°54' E 001°25'0 0.0
2018-Jun-14 04:27N 38°54' E 001°25'0 0.0
2018-Jun-14 03:57N 38°54' E 001°25'0 0.0
2018-Jun-14 03:28N 38°54' E 001°25'0 0.0
2018-Jun-14 01:44N 38°54' E 001°25'0 0.0
2018-Jun-14 01:15N 38°54' E 001°25'0 0.0
2018-Jun-14 00:54N 38°54' E 001°25'0 0.0
2018-Jun-13 22:20N 38°54' E 001°25'0 0.0
2018-Jun-13 19:25N 38°54' E 001°25'0 0.0
2018-Jun-13 18:57N 38°54' E 001°25'0 0.0
2018-Jun-13 18:25N 38°54' E 001°25'0 0.0
2018-Jun-13 17:57N 38°54' E 001°25'0 0.0
2018-Jun-13 17:01N 38°54' E 001°25'0 0.0
2018-Jun-13 16:49N 38°54' E 001°25'0 0.0
2018-Jun-13 16:18N 38°54' E 001°25'0 0.0
2018-Jun-13 15:58N 38°54' E 001°25'0 0.0
2018-Jun-13 15:28N 38°54' E 001°25'0 0.7
2018-Jun-13 15:00N 38°54' E 001°25'1 1.0
2018-Jun-13 14:24N 38°53' E 001°25'0 0.0
2018-Jun-13 13:47N 38°53' E 001°25'0 0.0
2018-Jun-13 13:28N 38°53' E 001°25'0 0.0
2018-Jun-13 11:36N 38°53' E 001°25'0 0.1
2018-Jun-13 11:29N 38°53' E 001°25'1 0.3
2018-Jun-13 10:00N 38°54' E 001°25'0 0.1
2018-Jun-13 09:28N 38°53' E 001°25'0 0.0
2018-Jun-13 09:00N 38°53' E 001°25'0 0.0
2018-Jun-13 08:24N 38°53' E 001°25'0 0.0
2018-Jun-13 08:00N 38°53' E 001°25'0 0.0
2018-Jun-13 07:30N 38°53' E 001°25'0 0.0
2018-Jun-13 06:51N 38°53' E 001°25'0 0.0
2018-Jun-13 05:43N 38°53' E 001°25'0 0.0
2018-Jun-13 05:21N 38°53' E 001°25'0 0.1
2018-Jun-13 04:09N 38°54' E 001°25'0 0.5
2018-Jun-13 03:09N 38°53' E 001°26'0 0.9
2018-Jun-13 02:49N 38°53' E 001°26'0 0.2
2018-Jun-13 01:34N 38°54' E 001°26'0 0.0
2018-Jun-13 01:24N 38°54' E 001°26'0 0.0
2018-Jun-13 00:52N 38°54' E 001°26'0 0.0
2018-Jun-13 00:29N 38°54' E 001°26'0 0.0
2018-Jun-12 22:37N 38°54' E 001°26'0 0.0
2018-Jun-12 22:27N 38°54' E 001°26'0 0.0
2018-Jun-12 21:56N 38°54' E 001°26'0 0.0
2018-Jun-12 21:28N 38°54' E 001°26'0 0.0
2018-Jun-12 10:02N 38°54' E 001°25'0 4.4
2018-Jun-12 10:00N 38°54' E 001°26'0 0.1
2018-Jun-12 09:26N 38°53' E 001°26'0 0.0
2018-Jun-12 08:19N 38°54' E 001°26'0 0.0
2018-Jun-12 07:56N 38°54' E 001°26'0 0.0
2018-Jun-12 07:29N 38°54' E 001°26'0 0.0
2018-Jun-12 06:32N 38°54' E 001°26'0 0.0
2018-Jun-12 06:22N 38°54' E 001°26'0 0.0
2018-Jun-12 05:59N 38°54' E 001°26'0 0.0
2018-Jun-12 05:30N 38°54' E 001°26'0 0.0
2018-Jun-12 04:59N 38°54' E 001°26'0 0.0
2018-Jun-12 04:26N 38°54' E 001°26'0 0.0
2018-Jun-12 04:00N 38°54' E 001°26'0 0.0
2018-Jun-12 03:29N 38°54' E 001°26'0 0.0
2018-Jun-12 02:57N 38°54' E 001°26'0 0.0
2018-Jun-12 02:28N 38°54' E 001°26'0 0.0
2018-Jun-12 01:58N 38°54' E 001°26'0 0.0
2018-Jun-12 01:30N 38°54' E 001°26'0 0.0
2018-Jun-12 00:57N 38°54' E 001°26'0 0.0
2018-Jun-12 00:29N 38°54' E 001°26'0 0.0
2018-Jun-11 23:58N 38°54' E 001°26'0 0.0
2018-Jun-11 23:30N 38°54' E 001°26'0 0.0
2018-Jun-11 22:59N 38°54' E 001°26'0 0.0
2018-Jun-11 22:28N 38°54' E 001°26'0 0.0
2018-Jun-11 21:57N 38°54' E 001°26'0 0.0
2018-Jun-11 20:43N 38°54' E 001°26'0 0.0
2018-Jun-11 20:30N 38°54' E 001°26'0 0.0
2018-Jun-11 19:57N 38°54' E 001°26'0 0.0
2018-Jun-11 19:28N 38°54' E 001°26'0 0.0
2018-Jun-11 18:58N 38°54' E 001°26'0 0.0
2018-Jun-11 18:24N 38°54' E 001°26'0 0.0
2018-Jun-11 18:00N 38°54' E 001°26'0 0.0
2018-Jun-11 17:27N 38°54' E 001°26'0 0.0
2018-Jun-11 16:59N 38°54' E 001°26'0 0.0
2018-Jun-11 16:27N 38°54' E 001°26'0 0.0
2018-Jun-11 15:56N 38°54' E 001°26'0 0.0
2018-Jun-11 15:29N 38°54' E 001°26'0 0.0
2018-Jun-11 14:59N 38°53' E 001°26'0 0.0
2018-Jun-11 13:59N 38°53' E 001°26'0 0.0
2018-Jun-11 13:30N 38°53' E 001°26'0 0.1
2018-Jun-11 12:00N 38°54' E 001°26'1 0.3
2018-Jun-11 09:58N 38°54' E 001°25'0 1.0
2018-Jun-11 09:29N 38°54' E 001°25'0 0.0
2018-Jun-11 08:58N 38°54' E 001°25'0 0.0
2018-Jun-11 08:29N 38°54' E 001°25'0 0.0
2018-Jun-11 08:00N 38°54' E 001°25'0 0.5
2018-Jun-11 07:24N 38°54' E 001°25'0 0.0
2018-Jun-11 06:59N 38°54' E 001°25'0 0.0
2018-Jun-11 06:30N 38°54' E 001°25'0 0.0
2018-Jun-11 05:57N 38°54' E 001°25'0 0.0
2018-Jun-11 05:30N 38°54' E 001°25'0 0.0
2018-Jun-11 04:59N 38°54' E 001°25'0 0.0
2018-Jun-11 04:26N 38°54' E 001°25'0 0.0
2018-Jun-11 03:51N 38°54' E 001°25'0 0.0
2018-Jun-11 03:30N 38°54' E 001°25'0 0.0
2018-Jun-11 03:00N 38°54' E 001°25'0 0.1
2018-Jun-11 02:28N 38°54' E 001°25'0 0.0
2018-Jun-11 01:56N 38°54' E 001°25'0 0.0
2018-Jun-11 01:25N 38°54' E 001°25'0 0.0
2018-Jun-11 00:59N 38°54' E 001°25'0 0.0
2018-Jun-11 00:23N 38°54' E 001°25'0 0.0
2018-Jun-11 00:00N 38°54' E 001°25'0 0.0
2018-Jun-10 23:28N 38°54' E 001°25'0 0.0
2018-Jun-10 23:00N 38°54' E 001°25'0 0.0
2018-Jun-10 22:30N 38°54' E 001°25'0 0.0
2018-Jun-10 21:56N 38°54' E 001°25'0 0.0
2018-Jun-10 21:27N 38°54' E 001°25'0 0.0
2018-Jun-10 20:57N 38°54' E 001°25'0 0.0
2018-Jun-10 20:29N 38°54' E 001°25'0 0.0
2018-Jun-10 19:59N 38°54' E 001°25'0 0.0
2018-Jun-10 19:25N 38°54' E 001°25'0 0.0
2018-Jun-10 18:58N 38°54' E 001°25'0 0.0
2018-Jun-10 18:29N 38°54' E 001°25'0 0.0
2018-Jun-10 17:51N 38°54' E 001°25'0 0.6
2018-Jun-10 17:29N 38°54' E 001°25'0 0.5
2018-Jun-10 16:58N 38°54' E 001°25'1 1.1
2018-Jun-10 16:30N 38°54' E 001°26'1 1.0
2018-Jun-10 15:56N 38°54' E 001°25'0 0.9
2018-Jun-10 15:30N 38°54' E 001°25'5 3.1
2018-Jun-10 13:55N 38°56' E 001°31'4 7.4
2018-Jun-10 13:23N 38°54' E 001°27'1 0.9
2018-Jun-10 11:47N 38°54' E 001°25'0 0.1
2018-Jun-10 08:35N 38°54' E 001°25'0 0.1
2018-Jun-10 08:30N 38°54' E 001°25'0 0.0
2018-Jun-10 07:25N 38°54' E 001°25'0 0.7
2018-Jun-10 06:55N 38°54' E 001°25'0 0.0
2018-Jun-10 06:00N 38°54' E 001°25'0 0.0
2018-Jun-10 05:26N 38°54' E 001°25'0 0.0
2018-Jun-10 04:57N 38°54' E 001°25'0 0.0
2018-Jun-10 04:28N 38°54' E 001°25'0 0.0
2018-Jun-10 04:00N 38°54' E 001°25'0 0.0
2018-Jun-10 03:26N 38°54' E 001°25'0 0.0
2018-Jun-10 03:00N 38°54' E 001°25'0 0.0
2018-Jun-10 02:29N 38°54' E 001°25'0 0.0
2018-Jun-10 01:56N 38°54' E 001°25'0 0.0
2018-Jun-10 01:30N 38°54' E 001°25'0 0.0
2018-Jun-10 00:59N 38°54' E 001°25'0 0.0
2018-Jun-10 00:29N 38°54' E 001°25'0 0.0
2018-Jun-10 00:00N 38°54' E 001°25'0 0.0
2018-Jun-09 23:29N 38°54' E 001°25'0 0.0
2018-Jun-09 22:59N 38°54' E 001°25'0 0.0
2018-Jun-09 22:29N 38°54' E 001°25'0 0.0
2018-Jun-09 21:59N 38°54' E 001°25'  

Dump ship's entire track history